Hakuryoumaru No.15 — JD2439 — position and weather

sailwx.info

Track history (hours):
 
Tides and Currents Weather Stations Pressure Air Temp Water Temp Dewpoint Dewpoint Depression Visibility Wind Speed Wind Dir Waves Ship Positions

Hakuryoumaru No.15

Last reported at 2018-Apr-21 12:50 UTC. Time now 2018-Apr-22 20:19 UTC.
Position N 35°05' E 140°20'.

Length 80 m; draft 3.8 m.

Type: Tanker. MMSI: 431000243.

Date/timePositionNaut miles runAvg speedWind from/ knotsBaromVisibWave heightAir tempDewpointWater temp
2018-Apr-21 12:50N 35°05' E 140°20'1013.7
2018-Apr-21 12:07N 34°59' E 140°10'213.2
2018-Apr-21 12:00N 34°58' E 140°09'713.4
2018-Apr-21 11:30N 34°55' E 140°02'913.1
2018-Apr-21 10:48N 34°51' E 139°52'513.3
2018-Apr-21 10:26N 34°50' E 139°46'614.2
2018-Apr-21 10:00N 34°50' E 139°38'714.4
2018-Apr-21 09:30N 34°50' E 139°30'714.1
2018-Apr-21 09:00N 34°50' E 139°21'814.8
2018-Apr-21 08:27N 34°45' E 139°13'714.6
2018-Apr-21 08:00N 34°41' E 139°06'714.0
2018-Apr-21 07:30N 34°37' E 138°60'814.0
2018-Apr-21 06:56N 34°35' E 138°50'613.5
2018-Apr-21 06:30N 34°39' E 138°45'713.2
2018-Apr-21 06:00N 34°45' E 138°41'712.8
2018-Apr-21 05:29N 34°51' E 138°38'612.6
2018-Apr-21 05:00N 34°57' E 138°35'612.1
2018-Apr-21 04:30N 35°02' E 138°32'2 2.8
2018-Apr-21 03:58N 35°02' E 138°30'0 0.0
2018-Apr-21 03:28N 35°02' E 138°30'0 0.0
2018-Apr-21 02:58N 35°02' E 138°30'0 0.0
2018-Apr-21 02:28N 35°02' E 138°30'0 0.0
2018-Apr-21 01:52N 35°02' E 138°30'0 0.0
2018-Apr-21 01:28N 35°02' E 138°30'0 0.0
2018-Apr-21 00:58N 35°02' E 138°30'0 0.0
2018-Apr-21 00:28N 35°02' E 138°30'0 0.0
2018-Apr-20 23:58N 35°02' E 138°30'0 0.0
2018-Apr-20 23:29N 35°02' E 138°30'0 0.9
2018-Apr-20 23:00N 35°02' E 138°30'0 0.5
2018-Apr-20 22:28N 35°02' E 138°30'0 0.0
2018-Apr-20 21:58N 35°02' E 138°30'0 0.0
2018-Apr-20 21:28N 35°02' E 138°30'0 0.0
2018-Apr-20 20:58N 35°02' E 138°30'0 0.0
2018-Apr-20 20:28N 35°02' E 138°30'0 0.0
2018-Apr-20 19:55N 35°02' E 138°30'0 0.0
2018-Apr-20 19:28N 35°02' E 138°30'0 0.0
2018-Apr-20 18:58N 35°02' E 138°30'0 0.0
2018-Apr-20 18:28N 35°02' E 138°30'2 4.0
2018-Apr-20 18:00N 35°01' E 138°32'611.3
2018-Apr-20 17:30N 34°55' E 138°35'611.9
2018-Apr-20 17:00N 34°50' E 138°38'612.2
2018-Apr-20 16:30N 34°44' E 138°41'712.1
2018-Apr-20 15:53N 34°38' E 138°45'811.2
2018-Apr-20 15:11N 34°36' E 138°54'311.8
2018-Apr-20 14:58N 34°36' E 138°57'612.1
2018-Apr-20 14:30N 34°40' E 139°02'711.4
2018-Apr-20 13:55N 34°45' E 139°08'811.8
2018-Apr-20 13:16N 34°51' E 139°14'311.6
2018-Apr-20 12:59N 34°53' E 139°17'611.8
2018-Apr-20 12:30N 34°56' E 139°22'611.6
2018-Apr-20 12:00N 35°00' E 139°28'612.0
2018-Apr-20 11:30N 35°03' E 139°34'612.5
2018-Apr-20 11:00N 35°07' E 139°41'612.4
2018-Apr-20 10:30N 35°11' E 139°45'511.0
2018-Apr-20 10:00N 35°17' E 139°45'611.6
2018-Apr-20 09:30N 35°22' E 139°42'611.3
2018-Apr-20 09:00N 35°28' E 139°42'3 6.2
2018-Apr-20 08:30N 35°30' E 139°45'0 0.0
2018-Apr-20 07:53N 35°30' E 139°45'0 0.0
2018-Apr-20 07:29N 35°30' E 139°45'0 0.0
2018-Apr-20 06:56N 35°30' E 139°45'0 0.0
2018-Apr-20 06:26N 35°30' E 139°45'0 0.0
2018-Apr-20 05:59N 35°30' E 139°45'0 0.0
2018-Apr-20 05:29N 35°30' E 139°45'0 0.0
2018-Apr-20 04:59N 35°30' E 139°45'0 0.0
2018-Apr-20 04:29N 35°30' E 139°45'0 0.0
2018-Apr-20 03:59N 35°30' E 139°45'0 0.0
2018-Apr-20 03:29N 35°30' E 139°45'3 5.5
2018-Apr-20 03:00N 35°30' E 139°48'1 1.7
2018-Apr-20 02:28N 35°29' E 139°48'0 0.0
2018-Apr-20 01:58N 35°29' E 139°48'0 0.0
2018-Apr-20 01:28N 35°29' E 139°48'0 0.0
2018-Apr-20 00:58N 35°29' E 139°48'0 0.0
2018-Apr-20 00:28N 35°29' E 139°48'0 0.0
2018-Apr-19 23:58N 35°29' E 139°48'0 0.0
2018-Apr-19 23:22N 35°29' E 139°48'0 0.0
2018-Apr-19 22:58N 35°29' E 139°48'0 0.1
2018-Apr-19 22:28N 35°29' E 139°48'0 0.0
2018-Apr-19 21:58N 35°29' E 139°48'0 0.0
2018-Apr-19 21:28N 35°29' E 139°48'0 0.1
2018-Apr-19 20:58N 35°29' E 139°48'0 0.1
2018-Apr-19 20:28N 35°29' E 139°48'0 0.0
2018-Apr-19 19:52N 35°29' E 139°48'0 0.1
2018-Apr-19 19:28N 35°29' E 139°48'0 0.1
2018-Apr-19 18:58N 35°29' E 139°48'0 0.1
2018-Apr-19 18:28N 35°29' E 139°48'0 0.0
2018-Apr-19 17:58N 35°29' E 139°48'0 0.0
2018-Apr-19 17:28N 35°29' E 139°48'0 0.0
2018-Apr-19 16:58N 35°29' E 139°48'0 0.0
2018-Apr-19 16:28N 35°29' E 139°48'0 0.1
2018-Apr-19 15:55N 35°29' E 139°48'0 0.0
2018-Apr-19 15:28N 35°29' E 139°48'0 0.0
2018-Apr-19 14:58N 35°29' E 139°48'0 0.0
2018-Apr-19 14:22N 35°29' E 139°48'0 0.0
2018-Apr-19 13:58N 35°29' E 139°48'0 0.0
2018-Apr-19 13:25N 35°29' E 139°48'0 0.0
2018-Apr-19 12:49N 35°29' E 139°48'2 7.4
2018-Apr-19 12:30N 35°27' E 139°47'612.9
2018-Apr-19 12:00N 35°21' E 139°45'611.9
2018-Apr-19 11:30N 35°15' E 139°47'713.4
2018-Apr-19 11:00N 35°08' E 139°46'612.8
2018-Apr-19 10:30N 35°04' E 139°40'713.9
2018-Apr-19 10:00N 34°59' E 139°34'1114.8
2018-Apr-19 09:16N 34°52' E 139°23'414.8
2018-Apr-19 09:01N 34°50' E 139°20'813.7
2018-Apr-19 08:27N 34°45' E 139°12'613.1
2018-Apr-19 08:00N 34°42' E 139°07'712.8
2018-Apr-19 07:26N 34°37' E 138°60'612.7
2018-Apr-19 06:59N 34°35' E 138°53'712.8
2018-Apr-19 06:28N 34°37' E 138°46'613.0
2018-Apr-19 06:00N 34°43' E 138°42'612.8
2018-Apr-19 05:30N 34°49' E 138°42'612.5
2018-Apr-19 05:00N 34°55' E 138°42'612.6
2018-Apr-19 04:30N 35°02' E 138°42'712.9
2018-Apr-19 04:00N 35°08' E 138°42'0 0.6
2018-Apr-19 03:25N 35°08' E 138°42'0 0.0
2018-Apr-19 02:58N 35°08' E 138°42'0 0.0
2018-Apr-19 02:22N 35°08' E 138°42'0 0.0
2018-Apr-19 01:58N 35°08' E 138°42'0 0.0
2018-Apr-19 00:46N 35°08' E 138°42'0 0.0
2018-Apr-19 00:28N 35°08' E 138°42'1 2.4
2018-Apr-19 00:00N 35°07' E 138°42'612.4
2018-Apr-18 23:30N 35°03' E 138°37'612.1
2018-Apr-18 23:00N 34°57' E 138°33'611.9
2018-Apr-18 22:31N 34°52' E 138°29'611.8
2018-Apr-18 22:00N 34°47' E 138°26'612.0
2018-Apr-18 21:28N 34°42' E 138°21'511.7
2018-Apr-18 21:01N 34°37' E 138°18'4911.1
2018-Apr-18 16:35N 34°34' E 137°18'211.5
2018-Apr-18 16:24N 34°34' E 137°16'511.5
2018-Apr-18 16:00N 34°33' E 137°10'712.6
2018-Apr-18 15:29N 34°32' E 137°02'1012.8
2018-Apr-18 14:42N 34°38' E 136°53'312.7
2018-Apr-18 14:30N 34°40' E 136°50'713.1
2018-Apr-18 14:00N 34°46' E 136°46'613.1
2018-Apr-18 13:31N 34°51' E 136°43'612.1
2018-Apr-18 13:01N 34°57' E 136°40'1 2.7
2018-Apr-18 12:31N 34°56' E 136°38'0 0.0
2018-Apr-18 12:00N 34°56' E 136°38'0 0.0
2018-Apr-18 11:30N 34°56' E 136°38'0 0.0
2018-Apr-18 11:00N 34°56' E 136°38'0 0.0
2018-Apr-18 10:30N 34°56' E 136°38'0 0.0
2018-Apr-18 10:00N 34°56' E 136°38'0 0.0
2018-Apr-18 09:30N 34°56' E 136°38'0 0.0
2018-Apr-18 08:54N 34°56' E 136°38'0 0.0
2018-Apr-18 08:30N 34°56' E 136°38'0 0.1
2018-Apr-18 08:00N 34°56' E 136°39'2 3.9
2018-Apr-18 07:30N 34°57' E 136°41'0 0.1
2018-Apr-18 07:00N 34°57' E 136°41'0 0.0
2018-Apr-18 06:29N 34°57' E 136°41'0 0.1
2018-Apr-18 05:56N 34°57' E 136°41'0 0.1
2018-Apr-18 05:26N 34°57' E 136°41'0 0.1
2018-Apr-18 04:56N 34°57' E 136°41'0 0.0
2018-Apr-18 04:29N 34°57' E 136°41'0 0.1
2018-Apr-18 03:59N 34°57' E 136°41'0 0.2
2018-Apr-18 03:31N 34°57' E 136°41'612.1
2018-Apr-18 03:01N 34°60' E 136°47'510.8
2018-Apr-18 02:31N 35°04' E 136°52'0 0.0
2018-Apr-18 01:59N 35°04' E 136°52'0 0.0
2018-Apr-18 01:26N 35°04' E 136°52'0 0.0
2018-Apr-18 00:59N 35°04' E 136°52'0 0.0
2018-Apr-18 00:29N 35°04' E 136°52'0 0.0
2018-Apr-17 23:59N 35°04' E 136°52'0 0.1
2018-Apr-17 23:30N 35°04' E 136°52'3 5.6
2018-Apr-17 23:00N 35°01' E 136°51'3 5.9
2018-Apr-17 22:31N 34°59' E 136°48'0 0.1
2018-Apr-17 22:00N 34°59' E 136°48'0 0.0
2018-Apr-17 21:30N 34°59' E 136°48'0 0.0
2018-Apr-17 21:00N 34°59' E 136°48'0 0.0
2018-Apr-17 20:30N 34°59' E 136°48'0 0.0
2018-Apr-17 19:57N 34°59' E 136°48'0 0.0
2018-Apr-17 19:30N 34°59' E 136°48'0 0.0
2018-Apr-17 19:00N 34°59' E 136°48'0 0.0
2018-Apr-17 18:30N 34°59' E 136°48'0 0.0
2018-Apr-17 18:00N 34°59' E 136°48'0 0.0
2018-Apr-17 17:30N 34°59' E 136°48'0 0.0
2018-Apr-17 17:00N 34°59' E 136°48'0 0.0
2018-Apr-17 16:30N 34°59' E 136°48'0 0.0
2018-Apr-17 16:00N 34°59' E 136°48'0 0.0
2018-Apr-17 15:30N 34°59' E 136°48'0 0.0
2018-Apr-17 15:00N 34°59' E 136°48'0 0.0
2018-Apr-17 14:30N 34°59' E 136°48'0 0.0
2018-Apr-17 14:00N 34°59' E 136°48'2 4.3
2018-Apr-17 13:31N 34°58' E 136°46'611.6
2018-Apr-17 13:00N 34°57' E 136°39'0 0.6
2018-Apr-17 12:26N 34°57' E 136°38'0 0.0
2018-Apr-17 11:50N 34°57' E 136°38'0 0.0
2018-Apr-17 11:26N 34°57' E 136°38'0 0.0
2018-Apr-17 10:44N 34°57' E 136°38'0 0.0
2018-Apr-17 10:26N 34°57' E 136°38'0 0.0
2018-Apr-17 09:56N 34°57' E 136°38'0 0.0
2018-Apr-17 09:26N 34°57' E 136°38'0 0.0
2018-Apr-17 08:59N 34°57' E 136°38'1 2.8
2018-Apr-17 08:30N 34°58' E 136°39'0 0.2
2018-Apr-17 07:58N 34°58' E 136°39'0 0.0
2018-Apr-17 07:28N 34°58' E 136°39'0 0.0
2018-Apr-17 06:55N 34°58' E 136°39'0 0.0
2018-Apr-17 06:28N 34°58' E 136°39'0 0.0
2018-Apr-17 05:55N 34°58' E 136°39'0 0.0
2018-Apr-17 05:28N 34°58' E 136°39'0 0.0
2018-Apr-17 04:49N 34°58' E 136°39'0 0.0
2018-Apr-17 04:28N 34°58' E 136°39'0 0.0
2018-Apr-17 03:55N 34°58' E 136°39'0 0.0
2018-Apr-17 03:25N 34°58' E 136°39'0 0.1
2018-Apr-17 02:58N 34°58' E 136°39'0 0.0
2018-Apr-17 02:28N 34°58' E 136°39'0 0.1
2018-Apr-17 02:00N 34°58' E 136°39'1 2.1
2018-Apr-17 01:30N 34°57' E 136°38'0 0.0
2018-Apr-17 00:56N 34°57' E 136°38'0 0.0
2018-Apr-17 00:29N 34°57' E 136°38'0 0.0
2018-Apr-16 23:56N 34°57' E 136°38'0 0.0
2018-Apr-16 23:26N 34°57' E 136°38'0 0.0
2018-Apr-16 22:56N 34°57' E 136°38'0 0.0
2018-Apr-16 22:26N 34°57' E 136°38'0 0.0
2018-Apr-16 21:56N 34°57' E 136°38'0 0.0
2018-Apr-16 21:26N 34°57' E 136°38'0 0.0
2018-Apr-16 20:59N 34°57' E 136°38'0 0.0
2018-Apr-16 20:29N 34°57' E 136°38'0 0.0
2018-Apr-16 19:56N 34°57' E 136°38'0 0.0
2018-Apr-16 19:29N 34°57' E 136°38'0 0.0
2018-Apr-16 18:56N 34°57' E 136°38'0 0.0
2018-Apr-16 18:26N 34°57' E 136°38'0 0.0
2018-Apr-16 17:56N 34°57' E 136°38'0 0.0
2018-Apr-16 17:26N 34°57' E 136°38'0 0.0
2018-Apr-16 16:56N 34°57' E 136°38'0 0.0
2018-Apr-16 16:26N 34°57' E 136°38'0 0.0
2018-Apr-16 15:56N 34°57' E 136°38'0 0.0
2018-Apr-16 15:26N 34°57' E 136°38'0 0.0
2018-Apr-16 14:50N 34°57' E 136°38'0 0.0
2018-Apr-16 14:26N 34°57' E 136°38'0 0.0
2018-Apr-16 13:59N 34°57' E 136°38'0 0.0
2018-Apr-16 13:26N 34°57' E 136°38'0 0.0
2018-Apr-16 12:56N 34°57' E 136°38'0 0.0
2018-Apr-16 12:26N 34°57' E 136°38'0 0.0
2018-Apr-16 11:56N 34°57' E 136°38'0 0.0
2018-Apr-16 11:26N 34°57' E 136°38'0 0.0
2018-Apr-16 10:56N 34°57' E 136°38'0 0.0
2018-Apr-16 10:29N 34°57' E 136°38'0 0.0
2018-Apr-16 09:59N 34°57' E 136°38'0 0.0
2018-Apr-16 09:26N 34°57' E 136°38'0 0.0
2018-Apr-16 08:59N 34°57' E 136°38'0 0.0
2018-Apr-16 08:26N 34°57' E 136°38'0 0.0
2018-Apr-16 07:53N 34°57' E 136°38'0 0.0
2018-Apr-16 07:29N 34°57' E 136°38'0 0.0
2018-Apr-16 06:56N 34°57' E 136°38'0 0.0
2018-Apr-16 06:26N 34°57' E 136°38'0 0.0
2018-Apr-16 05:56N 34°57' E 136°38'0 0.0
2018-Apr-16 05:26N 34°57' E 136°38'0 0.0
2018-Apr-16 04:56N 34°57' E 136°38'0 0.0
2018-Apr-16 04:29N 34°57' E 136°38'2 4.4
2018-Apr-16 04:00N 34°57' E 136°41'4 7.6
2018-Apr-16 03:30N 34°58' E 136°45'612.5
2018-Apr-16 03:00N 35°02' E 136°51'2 3.3
2018-Apr-16 02:28N 35°04' E 136°52'0 0.0
2018-Apr-16 01:58N 35°04' E 136°52'0 0.0
2018-Apr-16 01:28N 35°04' E 136°52'0 0.0
2018-Apr-16 00:58N 35°04' E 136°52'0 0.0
2018-Apr-16 00:28N 35°04' E 136°52'0 0.0
2018-Apr-15 23:58N 35°04' E 136°52'0 0.1
2018-Apr-15 23:30N 35°04' E 136°52'3 5.8
2018-Apr-15 23:00N 35°01' E 136°51'3 6.4
2018-Apr-15 22:30N 34°59' E 136°47'0 0.1
2018-Apr-15 21:59N 34°59' E 136°47'0 0.0
2018-Apr-15 21:29N 34°59' E 136°47'0 0.1
2018-Apr-15 20:59N 34°59' E 136°47'0 0.0
2018-Apr-15 20:29N 34°59' E 136°47'0 0.0
2018-Apr-15 19:59N 34°59' E 136°47'0 0.0
2018-Apr-15 19:29N 34°59' E 136°47'0 0.0
2018-Apr-15 18:59N 34°59' E 136°47'0 0.0
2018-Apr-15 18:29N 34°59' E 136°47'0 0.0
2018-Apr-15 17:53N 34°59' E 136°47'0 0.0
2018-Apr-15 17:29N 34°59' E 136°47'0 0.0
2018-Apr-15 16:59N 34°59' E 136°47'0 0.0
2018-Apr-15 16:29N 34°59' E 136°47'0 0.0
2018-Apr-15 15:59N 34°59' E 136°47'0 0.0
2018-Apr-15 15:29N 34°59' E 136°47'0 0.1
2018-Apr-15 14:59N 34°59' E 136°47'0 0.0
2018-Apr-15 14:29N 34°59' E 136°47'0 0.0
2018-Apr-15 13:59N 34°59' E 136°47'0 0.0
2018-Apr-15 13:29N 34°59' E 136°47'0 0.1
2018-Apr-15 12:59N 34°59' E 136°47'0 0.1
2018-Apr-15 12:29N 34°59' E 136°47'0 0.0
2018-Apr-15 11:59N 34°59' E 136°47'0 0.0
2018-Apr-15 11:29N 34°59' E 136°47'0 0.0
2018-Apr-15 10:59N 34°59' E 136°47'0 0.0
2018-Apr-15 10:29N 34°59' E 136°47'0 0.0
2018-Apr-15 09:59N 34°59' E 136°47'0 0.0
2018-Apr-15 09:29N 34°59' E 136°47'0 0.1
2018-Apr-15 08:59N 34°59' E 136°47'0 0.0
2018-Apr-15 08:29N 34°59' E 136°47'3 6.2
2018-Apr-15 08:00N 34°58' E 136°44'5 9.9
2018-Apr-15 07:30N 34°56' E 136°39'0 0.1
2018-Apr-15 06:58N 34°56' E 136°38'0 0.0
2018-Apr-15 06:28N 34°56' E 136°38'0 0.0
2018-Apr-15 05:55N 34°56' E 136°38'0 0.0
2018-Apr-15 05:25N 34°56' E 136°38'0 0.0
2018-Apr-15 04:55N 34°56' E 136°38'0 0.0
2018-Apr-15 04:25N 34°56' E 136°38'0 0.0
2018-Apr-15 03:55N 34°56' E 136°38'0 0.0
2018-Apr-15 03:25N 34°56' E 136°38'0 0.0
2018-Apr-15 02:55N 34°56' E 136°38'0 0.0
2018-Apr-15 02:28N 34°56' E 136°38'0 0.0
2018-Apr-15 02:00N 34°56' E 136°38'1 1.1
2018-Apr-15 01:30N 34°57' E 136°38'0 0.0
2018-Apr-15 00:59N 34°57' E 136°38'0 0.0
2018-Apr-15 00:23N 34°57' E 136°38'0 0.0
2018-Apr-14 23:59N 34°57' E 136°38'0 0.0
2018-Apr-14 23:29N 34°57' E 136°38'0 0.0
2018-Apr-14 22:59N 34°57' E 136°38'0 0.0
2018-Apr-14 22:29N 34°57' E 136°38'0 0.0
2018-Apr-14 21:59N 34°57' E 136°38'0 0.0
2018-Apr-14 21:29N 34°57' E 136°38'0 0.0
2018-Apr-14 20:59N 34°57' E 136°38'0 0.0
2018-Apr-14 20:29N 34°57' E 136°38'0 0.0
2018-Apr-14 19:59N 34°57' E 136°38'0 0.0
2018-Apr-14 19:29N 34°57' E 136°38'0 0.0
2018-Apr-14 18:59N 34°57' E 136°38'0 0.0
2018-Apr-14 18:29N 34°57' E 136°38'0 0.0
2018-Apr-14 17:59N 34°57' E 136°38'0 0.0
2018-Apr-14 17:29N 34°57' E 136°38'0 0.0
2018-Apr-14 16:59N 34°57' E 136°38'0 0.0
2018-Apr-14 16:29N 34°57' E 136°38'0 0.0
2018-Apr-14 15:59N 34°57' E 136°38'0 0.0
2018-Apr-14 15:29N 34°57' E 136°38'0 0.0
2018-Apr-14 14:59N 34°57' E 136°38'0 0.0
2018-Apr-14 14:29N 34°57' E 136°38'0 0.0
2018-Apr-14 13:59N 34°57' E 136°38'0 0.0
2018-Apr-14 13:29N 34°57' E 136°38'0 0.0
2018-Apr-14 12:59N 34°57' E 136°38'0 0.0
2018-Apr-14 12:29N 34°57' E 136°38'0 0.0
2018-Apr-14 11:59N 34°57' E 136°38'0 0.0
2018-Apr-14 11:29N 34°57' E 136°38'0 0.0
2018-Apr-14 10:59N 34°57' E 136°38'0 0.0
2018-Apr-14 10:29N 34°57' E 136°38'0 0.0
2018-Apr-14 09:59N 34°57' E 136°38'0 0.0
2018-Apr-14 09:29N 34°57' E 136°38'0 0.0
2018-Apr-14 08:59N 34°57' E 136°38'0 0.0
2018-Apr-14 08:29N 34°57' E 136°38'0 0.0
2018-Apr-14 07:59N 34°57' E 136°38'0 0.0
2018-Apr-14 07:29N 34°57' E 136°38'0 0.0
2018-Apr-14 06:59N 34°57' E 136°38'0 0.0
2018-Apr-14 06:11N 34°57' E 136°38'0 0.0
2018-Apr-14 05:59N 34°57' E 136°38'0 0.0
2018-Apr-14 05:29N 34°57' E 136°38'0 0.0
2018-Apr-14 04:59N 34°57' E 136°38'0 0.0
2018-Apr-14 04:29N 34°57' E 136°38'0 0.0
2018-Apr-14 03:59N 34°57' E 136°38'0 0.0
2018-Apr-14 02:53N 34°57' E 136°38'0 0.0
2018-Apr-14 02:29N 34°57' E 136°38'0 0.0
2018-Apr-14 01:59N 34°57' E 136°38'0 0.0
2018-Apr-14 01:29N 34°57' E 136°38'0 0.0
2018-Apr-14 00:59N 34°57' E 136°38'0 0.0
2018-Apr-14 00:29N 34°57' E 136°38'0 0.0
2018-Apr-13 23:59N 34°57' E 136°38'0 0.0
2018-Apr-13 23:29N 34°57' E 136°38'0 0.0
2018-Apr-13 22:59N 34°57' E 136°38'0 0.0
2018-Apr-13 22:29N 34°57' E 136°38'0 0.0
2018-Apr-13 21:59N 34°57' E 136°38'0 0.0
2018-Apr-13 21:29N 34°57' E 136°38'0 0.0
2018-Apr-13 20:53N 34°57' E 136°38'0 0.0
2018-Apr-13 20:29N 34°57' E 136°38'0 0.0
2018-Apr-13 19:59N 34°57' E 136°38'0 0.0
2018-Apr-13 19:23N 34°57' E 136°38'0 0.0
2018-Apr-13 18:59N 34°57' E 136°38'0 0.0
2018-Apr-13 18:29N 34°57' E 136°38'0 0.0
2018-Apr-13 17:59N 34°57' E 136°38'0 0.0
2018-Apr-13 17:29N 34°57' E 136°38'0 0.0
2018-Apr-13 16:59N 34°57' E 136°38'0 0.0
2018-Apr-13 16:23N 34°57' E 136°38'0 0.0
2018-Apr-13 15:59N 34°57' E 136°38'0 0.0
2018-Apr-13 15:29N 34°57' E 136°38'0 0.0
2018-Apr-13 14:41N 34°57' E 136°38'0 0.0
2018-Apr-13 14:29N 34°57' E 136°38'0 0.0
2018-Apr-13 13:59N 34°57' E 136°38'0 0.0
2018-Apr-13 13:17N 34°57' E 136°38'0 0.0
2018-Apr-13 12:59N 34°57' E 136°38'0 0.0
2018-Apr-13 12:29N 34°57' E 136°38'0 0.0
2018-Apr-13 11:59N 34°57' E 136°38'0 0.0
2018-Apr-13 11:29N 34°57' E 136°38'0 0.0
2018-Apr-13 10:59N 34°57' E 136°38'0 0.0
2018-Apr-13 10:29N 34°57' E 136°38'0 0.0
2018-Apr-13 09:59N 34°57' E 136°38'0 0.0
2018-Apr-13 09:29N 34°57' E 136°38'0 0.0
2018-Apr-13 08:59N 34°57' E 136°38'0 0.0
2018-Apr-13 08:29N 34°57' E 136°38'0 0.0
2018-Apr-13 07:59N 34°57' E 136°38'0 0.0
2018-Apr-13 07:23N 34°57' E 136°38'0 0.0
2018-Apr-13 06:59N 34°57' E 136°38'0 0.0
2018-Apr-13 06:29N 34°57' E 136°38'0 0.0
2018-Apr-13 05:59N 34°57' E 136°38'0 0.0
2018-Apr-13 05:29N 34°57' E 136°38'0 0.0
2018-Apr-13 04:59N 34°57' E 136°38'0 0.0
2018-Apr-13 04:29N 34°57' E 136°38'0 0.0
2018-Apr-13 03:59N 34°57' E 136°38'2 3.4
2018-Apr-13 03:30N 34°57' E 136°40'1 2.2
2018-Apr-13 03:00N 34°56' E 136°41'3 5.9
2018-Apr-13 02:30N 34°53' E 136°42'4 7.9
2018-Apr-13 01:59N 34°49' E 136°43'711.6
2018-Apr-13 01:22N 34°43' E 136°47'411.9
2018-Apr-13 01:00N 34°40' E 136°51'102 8.4
2018-Apr-12 12:46N 33°51' E 135°03'413.5
2018-Apr-12 12:30N 33°53' E 135°00'713.0
2018-Apr-12 11:59N 33°58' E 134°55'613.1
2018-Apr-12 11:30N 34°03' E 134°50'713.3
2018-Apr-12 11:00N 34°08' E 134°45'713.4
2018-Apr-12 10:30N 34°13' E 134°39'612.4
2018-Apr-12 10:00N 34°17' E 134°34'713.2
2018-Apr-12 09:29N 34°20' E 134°26'712.9
2018-Apr-12 08:58N 34°22' E 134°18'612.4
2018-Apr-12 08:29N 34°25' E 134°12'  
Track history (hours):
 
Tides and Currents Weather Stations Pressure Air Temp Water Temp Dewpoint Dewpoint Depression Visibility Wind Speed Wind Dir Waves Ship Positions

Hakuryoumaru No.15

Last reported at 2018-Apr-21 12:50 UTC. Time now 2018-Apr-22 20:19 UTC.
Position N 35°05' E 140°20'.

Length 80 m; draft 3.8 m.

Type: Tanker. MMSI: 431000243.

Date/timePositionNaut miles runAvg speedWind from/ knotsBaromVisibWave heightAir tempDewpointWater temp
2018-Apr-21 12:50N 35°05' E 140°20'1013.7
2018-Apr-21 12:07N 34°59' E 140°10'213.2
2018-Apr-21 12:00N 34°58' E 140°09'713.4
2018-Apr-21 11:30N 34°55' E 140°02'913.1
2018-Apr-21 10:48N 34°51' E 139°52'513.3
2018-Apr-21 10:26N 34°50' E 139°46'614.2
2018-Apr-21 10:00N 34°50' E 139°38'714.4
2018-Apr-21 09:30N 34°50' E 139°30'714.1
2018-Apr-21 09:00N 34°50' E 139°21'814.8
2018-Apr-21 08:27N 34°45' E 139°13'714.6
2018-Apr-21 08:00N 34°41' E 139°06'714.0
2018-Apr-21 07:30N 34°37' E 138°60'814.0
2018-Apr-21 06:56N 34°35' E 138°50'613.5
2018-Apr-21 06:30N 34°39' E 138°45'713.2
2018-Apr-21 06:00N 34°45' E 138°41'712.8
2018-Apr-21 05:29N 34°51' E 138°38'612.6
2018-Apr-21 05:00N 34°57' E 138°35'612.1
2018-Apr-21 04:30N 35°02' E 138°32'2 2.8
2018-Apr-21 03:58N 35°02' E 138°30'0 0.0
2018-Apr-21 03:28N 35°02' E 138°30'0 0.0
2018-Apr-21 02:58N 35°02' E 138°30'0 0.0
2018-Apr-21 02:28N 35°02' E 138°30'0 0.0
2018-Apr-21 01:52N 35°02' E 138°30'0 0.0
2018-Apr-21 01:28N 35°02' E 138°30'0 0.0
2018-Apr-21 00:58N 35°02' E 138°30'0 0.0
2018-Apr-21 00:28N 35°02' E 138°30'0 0.0
2018-Apr-20 23:58N 35°02' E 138°30'0 0.0
2018-Apr-20 23:29N 35°02' E 138°30'0 0.9
2018-Apr-20 23:00N 35°02' E 138°30'0 0.5
2018-Apr-20 22:28N 35°02' E 138°30'0 0.0
2018-Apr-20 21:58N 35°02' E 138°30'0 0.0
2018-Apr-20 21:28N 35°02' E 138°30'0 0.0
2018-Apr-20 20:58N 35°02' E 138°30'0 0.0
2018-Apr-20 20:28N 35°02' E 138°30'0 0.0
2018-Apr-20 19:55N 35°02' E 138°30'0 0.0
2018-Apr-20 19:28N 35°02' E 138°30'0 0.0
2018-Apr-20 18:58N 35°02' E 138°30'0 0.0
2018-Apr-20 18:28N 35°02' E 138°30'2 4.0
2018-Apr-20 18:00N 35°01' E 138°32'611.3
2018-Apr-20 17:30N 34°55' E 138°35'611.9
2018-Apr-20 17:00N 34°50' E 138°38'612.2
2018-Apr-20 16:30N 34°44' E 138°41'712.1
2018-Apr-20 15:53N 34°38' E 138°45'811.2
2018-Apr-20 15:11N 34°36' E 138°54'311.8
2018-Apr-20 14:58N 34°36' E 138°57'612.1
2018-Apr-20 14:30N 34°40' E 139°02'711.4
2018-Apr-20 13:55N 34°45' E 139°08'811.8
2018-Apr-20 13:16N 34°51' E 139°14'311.6
2018-Apr-20 12:59N 34°53' E 139°17'611.8
2018-Apr-20 12:30N 34°56' E 139°22'611.6
2018-Apr-20 12:00N 35°00' E 139°28'612.0
2018-Apr-20 11:30N 35°03' E 139°34'612.5
2018-Apr-20 11:00N 35°07' E 139°41'612.4
2018-Apr-20 10:30N 35°11' E 139°45'511.0
2018-Apr-20 10:00N 35°17' E 139°45'611.6
2018-Apr-20 09:30N 35°22' E 139°42'611.3
2018-Apr-20 09:00N 35°28' E 139°42'3 6.2
2018-Apr-20 08:30N 35°30' E 139°45'0 0.0
2018-Apr-20 07:53N 35°30' E 139°45'0 0.0
2018-Apr-20 07:29N 35°30' E 139°45'0 0.0
2018-Apr-20 06:56N 35°30' E 139°45'0 0.0
2018-Apr-20 06:26N 35°30' E 139°45'0 0.0
2018-Apr-20 05:59N 35°30' E 139°45'0 0.0
2018-Apr-20 05:29N 35°30' E 139°45'0 0.0
2018-Apr-20 04:59N 35°30' E 139°45'0 0.0
2018-Apr-20 04:29N 35°30' E 139°45'0 0.0
2018-Apr-20 03:59N 35°30' E 139°45'0 0.0
2018-Apr-20 03:29N 35°30' E 139°45'3 5.5
2018-Apr-20 03:00N 35°30' E 139°48'1 1.7
2018-Apr-20 02:28N 35°29' E 139°48'0 0.0
2018-Apr-20 01:58N 35°29' E 139°48'0 0.0
2018-Apr-20 01:28N 35°29' E 139°48'0 0.0
2018-Apr-20 00:58N 35°29' E 139°48'0 0.0
2018-Apr-20 00:28N 35°29' E 139°48'0 0.0
2018-Apr-19 23:58N 35°29' E 139°48'0 0.0
2018-Apr-19 23:22N 35°29' E 139°48'0 0.0
2018-Apr-19 22:58N 35°29' E 139°48'0 0.1
2018-Apr-19 22:28N 35°29' E 139°48'0 0.0
2018-Apr-19 21:58N 35°29' E 139°48'0 0.0
2018-Apr-19 21:28N 35°29' E 139°48'0 0.1
2018-Apr-19 20:58N 35°29' E 139°48'0 0.1
2018-Apr-19 20:28N 35°29' E 139°48'0 0.0
2018-Apr-19 19:52N 35°29' E 139°48'0 0.1
2018-Apr-19 19:28N 35°29' E 139°48'0 0.1
2018-Apr-19 18:58N 35°29' E 139°48'0 0.1
2018-Apr-19 18:28N 35°29' E 139°48'0 0.0
2018-Apr-19 17:58N 35°29' E 139°48'0 0.0
2018-Apr-19 17:28N 35°29' E 139°48'0 0.0
2018-Apr-19 16:58N 35°29' E 139°48'0 0.0
2018-Apr-19 16:28N 35°29' E 139°48'0 0.1
2018-Apr-19 15:55N 35°29' E 139°48'0 0.0
2018-Apr-19 15:28N 35°29' E 139°48'0 0.0
2018-Apr-19 14:58N 35°29' E 139°48'0 0.0
2018-Apr-19 14:22N 35°29' E 139°48'0 0.0
2018-Apr-19 13:58N 35°29' E 139°48'0 0.0
2018-Apr-19 13:25N 35°29' E 139°48'0 0.0
2018-Apr-19 12:49N 35°29' E 139°48'2 7.4
2018-Apr-19 12:30N 35°27' E 139°47'612.9
2018-Apr-19 12:00N 35°21' E 139°45'611.9
2018-Apr-19 11:30N 35°15' E 139°47'713.4
2018-Apr-19 11:00N 35°08' E 139°46'612.8
2018-Apr-19 10:30N 35°04' E 139°40'713.9
2018-Apr-19 10:00N 34°59' E 139°34'1114.8
2018-Apr-19 09:16N 34°52' E 139°23'414.8
2018-Apr-19 09:01N 34°50' E 139°20'813.7
2018-Apr-19 08:27N 34°45' E 139°12'613.1
2018-Apr-19 08:00N 34°42' E 139°07'712.8
2018-Apr-19 07:26N 34°37' E 138°60'612.7
2018-Apr-19 06:59N 34°35' E 138°53'712.8
2018-Apr-19 06:28N 34°37' E 138°46'613.0
2018-Apr-19 06:00N 34°43' E 138°42'612.8
2018-Apr-19 05:30N 34°49' E 138°42'612.5
2018-Apr-19 05:00N 34°55' E 138°42'612.6
2018-Apr-19 04:30N 35°02' E 138°42'712.9
2018-Apr-19 04:00N 35°08' E 138°42'0 0.6
2018-Apr-19 03:25N 35°08' E 138°42'0 0.0
2018-Apr-19 02:58N 35°08' E 138°42'0 0.0
2018-Apr-19 02:22N 35°08' E 138°42'0 0.0
2018-Apr-19 01:58N 35°08' E 138°42'0 0.0
2018-Apr-19 00:46N 35°08' E 138°42'0 0.0
2018-Apr-19 00:28N 35°08' E 138°42'1 2.4
2018-Apr-19 00:00N 35°07' E 138°42'612.4
2018-Apr-18 23:30N 35°03' E 138°37'612.1
2018-Apr-18 23:00N 34°57' E 138°33'611.9
2018-Apr-18 22:31N 34°52' E 138°29'611.8
2018-Apr-18 22:00N 34°47' E 138°26'612.0
2018-Apr-18 21:28N 34°42' E 138°21'511.7
2018-Apr-18 21:01N 34°37' E 138°18'4911.1
2018-Apr-18 16:35N 34°34' E 137°18'211.5
2018-Apr-18 16:24N 34°34' E 137°16'511.5
2018-Apr-18 16:00N 34°33' E 137°10'712.6
2018-Apr-18 15:29N 34°32' E 137°02'1012.8
2018-Apr-18 14:42N 34°38' E 136°53'312.7
2018-Apr-18 14:30N 34°40' E 136°50'713.1
2018-Apr-18 14:00N 34°46' E 136°46'613.1
2018-Apr-18 13:31N 34°51' E 136°43'612.1
2018-Apr-18 13:01N 34°57' E 136°40'1 2.7
2018-Apr-18 12:31N 34°56' E 136°38'0 0.0
2018-Apr-18 12:00N 34°56' E 136°38'0 0.0
2018-Apr-18 11:30N 34°56' E 136°38'0 0.0
2018-Apr-18 11:00N 34°56' E 136°38'0 0.0
2018-Apr-18 10:30N 34°56' E 136°38'0 0.0
2018-Apr-18 10:00N 34°56' E 136°38'0 0.0
2018-Apr-18 09:30N 34°56' E 136°38'0 0.0
2018-Apr-18 08:54N 34°56' E 136°38'0 0.0
2018-Apr-18 08:30N 34°56' E 136°38'0 0.1
2018-Apr-18 08:00N 34°56' E 136°39'2 3.9
2018-Apr-18 07:30N 34°57' E 136°41'0 0.1
2018-Apr-18 07:00N 34°57' E 136°41'0 0.0
2018-Apr-18 06:29N 34°57' E 136°41'0 0.1
2018-Apr-18 05:56N 34°57' E 136°41'0 0.1
2018-Apr-18 05:26N 34°57' E 136°41'0 0.1
2018-Apr-18 04:56N 34°57' E 136°41'0 0.0
2018-Apr-18 04:29N 34°57' E 136°41'0 0.1
2018-Apr-18 03:59N 34°57' E 136°41'0 0.2
2018-Apr-18 03:31N 34°57' E 136°41'612.1
2018-Apr-18 03:01N 34°60' E 136°47'510.8
2018-Apr-18 02:31N 35°04' E 136°52'0 0.0
2018-Apr-18 01:59N 35°04' E 136°52'0 0.0
2018-Apr-18 01:26N 35°04' E 136°52'0 0.0
2018-Apr-18 00:59N 35°04' E 136°52'0 0.0
2018-Apr-18 00:29N 35°04' E 136°52'0 0.0
2018-Apr-17 23:59N 35°04' E 136°52'0 0.1
2018-Apr-17 23:30N 35°04' E 136°52'3 5.6
2018-Apr-17 23:00N 35°01' E 136°51'3 5.9
2018-Apr-17 22:31N 34°59' E 136°48'0 0.1
2018-Apr-17 22:00N 34°59' E 136°48'0 0.0
2018-Apr-17 21:30N 34°59' E 136°48'0 0.0
2018-Apr-17 21:00N 34°59' E 136°48'0 0.0
2018-Apr-17 20:30N 34°59' E 136°48'0 0.0
2018-Apr-17 19:57N 34°59' E 136°48'0 0.0
2018-Apr-17 19:30N 34°59' E 136°48'0 0.0
2018-Apr-17 19:00N 34°59' E 136°48'0 0.0
2018-Apr-17 18:30N 34°59' E 136°48'0 0.0
2018-Apr-17 18:00N 34°59' E 136°48'0 0.0
2018-Apr-17 17:30N 34°59' E 136°48'0 0.0
2018-Apr-17 17:00N 34°59' E 136°48'0 0.0
2018-Apr-17 16:30N 34°59' E 136°48'0 0.0
2018-Apr-17 16:00N 34°59' E 136°48'0 0.0
2018-Apr-17 15:30N 34°59' E 136°48'0 0.0
2018-Apr-17 15:00N 34°59' E 136°48'0 0.0
2018-Apr-17 14:30N 34°59' E 136°48'0 0.0
2018-Apr-17 14:00N 34°59' E 136°48'2 4.3
2018-Apr-17 13:31N 34°58' E 136°46'611.6
2018-Apr-17 13:00N 34°57' E 136°39'0 0.6
2018-Apr-17 12:26N 34°57' E 136°38'0 0.0
2018-Apr-17 11:50N 34°57' E 136°38'0 0.0
2018-Apr-17 11:26N 34°57' E 136°38'0 0.0
2018-Apr-17 10:44N 34°57' E 136°38'0 0.0
2018-Apr-17 10:26N 34°57' E 136°38'0 0.0
2018-Apr-17 09:56N 34°57' E 136°38'0 0.0
2018-Apr-17 09:26N 34°57' E 136°38'0 0.0
2018-Apr-17 08:59N 34°57' E 136°38'1 2.8
2018-Apr-17 08:30N 34°58' E 136°39'0 0.2
2018-Apr-17 07:58N 34°58' E 136°39'0 0.0
2018-Apr-17 07:28N 34°58' E 136°39'0 0.0
2018-Apr-17 06:55N 34°58' E 136°39'0 0.0
2018-Apr-17 06:28N 34°58' E 136°39'0 0.0
2018-Apr-17 05:55N 34°58' E 136°39'0 0.0
2018-Apr-17 05:28N 34°58' E 136°39'0 0.0
2018-Apr-17 04:49N 34°58' E 136°39'0 0.0
2018-Apr-17 04:28N 34°58' E 136°39'0 0.0
2018-Apr-17 03:55N 34°58' E 136°39'0 0.0
2018-Apr-17 03:25N 34°58' E 136°39'0 0.1
2018-Apr-17 02:58N 34°58' E 136°39'0 0.0
2018-Apr-17 02:28N 34°58' E 136°39'0 0.1
2018-Apr-17 02:00N 34°58' E 136°39'1 2.1
2018-Apr-17 01:30N 34°57' E 136°38'0 0.0
2018-Apr-17 00:56N 34°57' E 136°38'0 0.0
2018-Apr-17 00:29N 34°57' E 136°38'0 0.0
2018-Apr-16 23:56N 34°57' E 136°38'0 0.0
2018-Apr-16 23:26N 34°57' E 136°38'0 0.0
2018-Apr-16 22:56N 34°57' E 136°38'0 0.0
2018-Apr-16 22:26N 34°57' E 136°38'0 0.0
2018-Apr-16 21:56N 34°57' E 136°38'0 0.0
2018-Apr-16 21:26N 34°57' E 136°38'0 0.0
2018-Apr-16 20:59N 34°57' E 136°38'0 0.0
2018-Apr-16 20:29N 34°57' E 136°38'0 0.0
2018-Apr-16 19:56N 34°57' E 136°38'0 0.0
2018-Apr-16 19:29N 34°57' E 136°38'0 0.0
2018-Apr-16 18:56N 34°57' E 136°38'0 0.0
2018-Apr-16 18:26N 34°57' E 136°38'0 0.0
2018-Apr-16 17:56N 34°57' E 136°38'0 0.0
2018-Apr-16 17:26N 34°57' E 136°38'0 0.0
2018-Apr-16 16:56N 34°57' E 136°38'0 0.0
2018-Apr-16 16:26N 34°57' E 136°38'0 0.0
2018-Apr-16 15:56N 34°57' E 136°38'0 0.0
2018-Apr-16 15:26N 34°57' E 136°38'0 0.0
2018-Apr-16 14:50N 34°57' E 136°38'0 0.0
2018-Apr-16 14:26N 34°57' E 136°38'0 0.0
2018-Apr-16 13:59N 34°57' E 136°38'0 0.0
2018-Apr-16 13:26N 34°57' E 136°38'0 0.0
2018-Apr-16 12:56N 34°57' E 136°38'0 0.0
2018-Apr-16 12:26N 34°57' E 136°38'0 0.0
2018-Apr-16 11:56N 34°57' E 136°38'0 0.0
2018-Apr-16 11:26N 34°57' E 136°38'0 0.0
2018-Apr-16 10:56N 34°57' E 136°38'0 0.0
2018-Apr-16 10:29N 34°57' E 136°38'0 0.0
2018-Apr-16 09:59N 34°57' E 136°38'0 0.0
2018-Apr-16 09:26N 34°57' E 136°38'0 0.0
2018-Apr-16 08:59N 34°57' E 136°38'0 0.0
2018-Apr-16 08:26N 34°57' E 136°38'0 0.0
2018-Apr-16 07:53N 34°57' E 136°38'0 0.0
2018-Apr-16 07:29N 34°57' E 136°38'0 0.0
2018-Apr-16 06:56N 34°57' E 136°38'0 0.0
2018-Apr-16 06:26N 34°57' E 136°38'0 0.0
2018-Apr-16 05:56N 34°57' E 136°38'0 0.0
2018-Apr-16 05:26N 34°57' E 136°38'0 0.0
2018-Apr-16 04:56N 34°57' E 136°38'0 0.0
2018-Apr-16 04:29N 34°57' E 136°38'2 4.4
2018-Apr-16 04:00N 34°57' E 136°41'4 7.6
2018-Apr-16 03:30N 34°58' E 136°45'612.5
2018-Apr-16 03:00N 35°02' E 136°51'2 3.3
2018-Apr-16 02:28N 35°04' E 136°52'0 0.0
2018-Apr-16 01:58N 35°04' E 136°52'0 0.0
2018-Apr-16 01:28N 35°04' E 136°52'0 0.0
2018-Apr-16 00:58N 35°04' E 136°52'0 0.0
2018-Apr-16 00:28N 35°04' E 136°52'0 0.0
2018-Apr-15 23:58N 35°04' E 136°52'0 0.1
2018-Apr-15 23:30N 35°04' E 136°52'3 5.8
2018-Apr-15 23:00N 35°01' E 136°51'3 6.4
2018-Apr-15 22:30N 34°59' E 136°47'0 0.1
2018-Apr-15 21:59N 34°59' E 136°47'0 0.0
2018-Apr-15 21:29N 34°59' E 136°47'0 0.1
2018-Apr-15 20:59N 34°59' E 136°47'0 0.0
2018-Apr-15 20:29N 34°59' E 136°47'0 0.0
2018-Apr-15 19:59N 34°59' E 136°47'0 0.0
2018-Apr-15 19:29N 34°59' E 136°47'0 0.0
2018-Apr-15 18:59N 34°59' E 136°47'0 0.0
2018-Apr-15 18:29N 34°59' E 136°47'0 0.0
2018-Apr-15 17:53N 34°59' E 136°47'0 0.0
2018-Apr-15 17:29N 34°59' E 136°47'0 0.0
2018-Apr-15 16:59N 34°59' E 136°47'0 0.0
2018-Apr-15 16:29N 34°59' E 136°47'0 0.0
2018-Apr-15 15:59N 34°59' E 136°47'0 0.0
2018-Apr-15 15:29N 34°59' E 136°47'0 0.1
2018-Apr-15 14:59N 34°59' E 136°47'0 0.0
2018-Apr-15 14:29N 34°59' E 136°47'0 0.0
2018-Apr-15 13:59N 34°59' E 136°47'0 0.0
2018-Apr-15 13:29N 34°59' E 136°47'0 0.1
2018-Apr-15 12:59N 34°59' E 136°47'0 0.1
2018-Apr-15 12:29N 34°59' E 136°47'0 0.0
2018-Apr-15 11:59N 34°59' E 136°47'0 0.0
2018-Apr-15 11:29N 34°59' E 136°47'0 0.0
2018-Apr-15 10:59N 34°59' E 136°47'0 0.0
2018-Apr-15 10:29N 34°59' E 136°47'0 0.0
2018-Apr-15 09:59N 34°59' E 136°47'0 0.0
2018-Apr-15 09:29N 34°59' E 136°47'0 0.1
2018-Apr-15 08:59N 34°59' E 136°47'0 0.0
2018-Apr-15 08:29N 34°59' E 136°47'3 6.2
2018-Apr-15 08:00N 34°58' E 136°44'5 9.9
2018-Apr-15 07:30N 34°56' E 136°39'0 0.1
2018-Apr-15 06:58N 34°56' E 136°38'0 0.0
2018-Apr-15 06:28N 34°56' E 136°38'0 0.0
2018-Apr-15 05:55N 34°56' E 136°38'0 0.0
2018-Apr-15 05:25N 34°56' E 136°38'0 0.0
2018-Apr-15 04:55N 34°56' E 136°38'0 0.0
2018-Apr-15 04:25N 34°56' E 136°38'0 0.0
2018-Apr-15 03:55N 34°56' E 136°38'0 0.0
2018-Apr-15 03:25N 34°56' E 136°38'0 0.0
2018-Apr-15 02:55N 34°56' E 136°38'0 0.0
2018-Apr-15 02:28N 34°56' E 136°38'0 0.0
2018-Apr-15 02:00N 34°56' E 136°38'1 1.1
2018-Apr-15 01:30N 34°57' E 136°38'0 0.0
2018-Apr-15 00:59N 34°57' E 136°38'0 0.0
2018-Apr-15 00:23N 34°57' E 136°38'0 0.0
2018-Apr-14 23:59N 34°57' E 136°38'0 0.0
2018-Apr-14 23:29N 34°57' E 136°38'0 0.0
2018-Apr-14 22:59N 34°57' E 136°38'0 0.0
2018-Apr-14 22:29N 34°57' E 136°38'0 0.0
2018-Apr-14 21:59N 34°57' E 136°38'0 0.0
2018-Apr-14 21:29N 34°57' E 136°38'0 0.0
2018-Apr-14 20:59N 34°57' E 136°38'0 0.0
2018-Apr-14 20:29N 34°57' E 136°38'0 0.0
2018-Apr-14 19:59N 34°57' E 136°38'0 0.0
2018-Apr-14 19:29N 34°57' E 136°38'0 0.0
2018-Apr-14 18:59N 34°57' E 136°38'0 0.0
2018-Apr-14 18:29N 34°57' E 136°38'0 0.0
2018-Apr-14 17:59N 34°57' E 136°38'0 0.0
2018-Apr-14 17:29N 34°57' E 136°38'0 0.0
2018-Apr-14 16:59N 34°57' E 136°38'0 0.0
2018-Apr-14 16:29N 34°57' E 136°38'0 0.0
2018-Apr-14 15:59N 34°57' E 136°38'0 0.0
2018-Apr-14 15:29N 34°57' E 136°38'0 0.0
2018-Apr-14 14:59N 34°57' E 136°38'0 0.0
2018-Apr-14 14:29N 34°57' E 136°38'0 0.0
2018-Apr-14 13:59N 34°57' E 136°38'0 0.0
2018-Apr-14 13:29N 34°57' E 136°38'0 0.0
2018-Apr-14 12:59N 34°57' E 136°38'0 0.0
2018-Apr-14 12:29N 34°57' E 136°38'0 0.0
2018-Apr-14 11:59N 34°57' E 136°38'0 0.0
2018-Apr-14 11:29N 34°57' E 136°38'0 0.0
2018-Apr-14 10:59N 34°57' E 136°38'0 0.0
2018-Apr-14 10:29N 34°57' E 136°38'0 0.0
2018-Apr-14 09:59N 34°57' E 136°38'0 0.0
2018-Apr-14 09:29N 34°57' E 136°38'0 0.0
2018-Apr-14 08:59N 34°57' E 136°38'0 0.0
2018-Apr-14 08:29N 34°57' E 136°38'0 0.0
2018-Apr-14 07:59N 34°57' E 136°38'0 0.0
2018-Apr-14 07:29N 34°57' E 136°38'0 0.0
2018-Apr-14 06:59N 34°57' E 136°38'0 0.0
2018-Apr-14 06:11N 34°57' E 136°38'0 0.0
2018-Apr-14 05:59N 34°57' E 136°38'0 0.0
2018-Apr-14 05:29N 34°57' E 136°38'0 0.0
2018-Apr-14 04:59N 34°57' E 136°38'0 0.0
2018-Apr-14 04:29N 34°57' E 136°38'0 0.0
2018-Apr-14 03:59N 34°57' E 136°38'0 0.0
2018-Apr-14 02:53N 34°57' E 136°38'0 0.0
2018-Apr-14 02:29N 34°57' E 136°38'0 0.0
2018-Apr-14 01:59N 34°57' E 136°38'0 0.0
2018-Apr-14 01:29N 34°57' E 136°38'0 0.0
2018-Apr-14 00:59N 34°57' E 136°38'0 0.0
2018-Apr-14 00:29N 34°57' E 136°38'0 0.0
2018-Apr-13 23:59N 34°57' E 136°38'0 0.0
2018-Apr-13 23:29N 34°57' E 136°38'0 0.0
2018-Apr-13 22:59N 34°57' E 136°38'0 0.0
2018-Apr-13 22:29N 34°57' E 136°38'0 0.0
2018-Apr-13 21:59N 34°57' E 136°38'0 0.0
2018-Apr-13 21:29N 34°57' E 136°38'0 0.0
2018-Apr-13 20:53N 34°57' E 136°38'0 0.0
2018-Apr-13 20:29N 34°57' E 136°38'0 0.0
2018-Apr-13 19:59N 34°57' E 136°38'0 0.0
2018-Apr-13 19:23N 34°57' E 136°38'0 0.0
2018-Apr-13 18:59N 34°57' E 136°38'0 0.0
2018-Apr-13 18:29N 34°57' E 136°38'0 0.0
2018-Apr-13 17:59N 34°57' E 136°38'0 0.0
2018-Apr-13 17:29N 34°57' E 136°38'0 0.0
2018-Apr-13 16:59N 34°57' E 136°38'0 0.0
2018-Apr-13 16:23N 34°57' E 136°38'0 0.0
2018-Apr-13 15:59N 34°57' E 136°38'0 0.0
2018-Apr-13 15:29N 34°57' E 136°38'0 0.0
2018-Apr-13 14:41N 34°57' E 136°38'0 0.0
2018-Apr-13 14:29N 34°57' E 136°38'0 0.0
2018-Apr-13 13:59N 34°57' E 136°38'0 0.0
2018-Apr-13 13:17N 34°57' E 136°38'0 0.0
2018-Apr-13 12:59N 34°57' E 136°38'0 0.0
2018-Apr-13 12:29N 34°57' E 136°38'0 0.0
2018-Apr-13 11:59N 34°57' E 136°38'0 0.0
2018-Apr-13 11:29N 34°57' E 136°38'0 0.0
2018-Apr-13 10:59N 34°57' E 136°38'0 0.0
2018-Apr-13 10:29N 34°57' E 136°38'0 0.0
2018-Apr-13 09:59N 34°57' E 136°38'0 0.0
2018-Apr-13 09:29N 34°57' E 136°38'0 0.0
2018-Apr-13 08:59N 34°57' E 136°38'0 0.0
2018-Apr-13 08:29N 34°57' E 136°38'0 0.0
2018-Apr-13 07:59N 34°57' E 136°38'0 0.0
2018-Apr-13 07:23N 34°57' E 136°38'0 0.0
2018-Apr-13 06:59N 34°57' E 136°38'0 0.0
2018-Apr-13 06:29N 34°57' E 136°38'0 0.0
2018-Apr-13 05:59N 34°57' E 136°38'0 0.0
2018-Apr-13 05:29N 34°57' E 136°38'0 0.0
2018-Apr-13 04:59N 34°57' E 136°38'0 0.0
2018-Apr-13 04:29N 34°57' E 136°38'0 0.0
2018-Apr-13 03:59N 34°57' E 136°38'2 3.4
2018-Apr-13 03:30N 34°57' E 136°40'1 2.2
2018-Apr-13 03:00N 34°56' E 136°41'3 5.9
2018-Apr-13 02:30N 34°53' E 136°42'4 7.9
2018-Apr-13 01:59N 34°49' E 136°43'711.6
2018-Apr-13 01:22N 34°43' E 136°47'411.9
2018-Apr-13 01:00N 34°40' E 136°51'102 8.4
2018-Apr-12 12:46N 33°51' E 135°03'413.5
2018-Apr-12 12:30N 33°53' E 135°00'713.0
2018-Apr-12 11:59N 33°58' E 134°55'613.1
2018-Apr-12 11:30N 34°03' E 134°50'713.3
2018-Apr-12 11:00N 34°08' E 134°45'713.4
2018-Apr-12 10:30N 34°13' E 134°39'612.4
2018-Apr-12 10:00N 34°17' E 134°34'713.2
2018-Apr-12 09:29N 34°20' E 134°26'712.9
2018-Apr-12 08:58N 34°22' E 134°18'612.4
2018-Apr-12 08:29N 34°25' E 134°12'  

Dump ship's entire track history